Time;durP1;ratioP1;P1;durP2;ratioP2;P2;SDS_P1;SDS_P2;PMS_P1;PMS_P2;Temp;Humidity;BMP_temperature;BMP_pressure;BME280_temperature;BME280_humidity;BME280_pressure;Samples;Min_cycle;Max_cycle;Signal;HPM_P1;HPM_P2
2022/11/21 00:02:01;;;;;;;;;;;16.40;39.10;15.00;100070.00;;;;5030938;28;19912;-67
2022/11/21 00:04:27;;;;;;;;;;;16.40;39.10;15.00;100081.00;;;;5062587;28;19999;-67
2022/11/21 00:06:53;;;;;;;;;;;16.40;39.10;15.00;100080.00;;;;5062083;28;19924;-67
2022/11/21 00:09:18;;;;;;;;;;;16.40;39.10;15.00;100084.00;;;;5048013;28;19908;-67
2022/11/21 00:11:44;;;;;;;;;;;16.40;39.10;15.00;100090.00;;;;5063145;28;19939;-67
2022/11/21 00:14:10;;;;;;;;;;;16.40;39.10;15.00;100091.00;;;;5062349;28;19920;-67
2022/11/21 00:16:35;;;;;;;;;;;16.40;39.10;15.00;100088.00;;;;5044223;28;19913;-67
2022/11/21 00:19:01;;;;;;;;;;;16.40;39.10;15.00;100096.00;;;;5062249;28;19961;-67
2022/11/21 00:21:27;;;;;;;;;;;16.40;39.10;15.00;100100.00;;;;5065697;28;19917;-67
2022/11/21 00:23:52;;;;;;;;;;;16.40;39.10;15.00;100102.00;;;;5062938;28;19920;-68
2022/11/21 00:26:18;;;;;;;;;;;16.40;39.10;15.00;100097.00;;;;5070791;28;19920;-68
2022/11/21 00:28:44;;;;;;;;;;;16.40;39.10;15.00;100110.00;;;;5047397;28;19920;-68
2022/11/21 00:31:17;;;;;;;;;;;16.40;39.10;15.00;100110.00;;;;5066114;28;19916;-68
2022/11/21 00:33:43;;;;;;;;;;;16.40;39.10;15.00;100113.00;;;;5063217;28;19946;-68
2022/11/21 00:36:09;;;;;;;;;;;16.40;39.10;15.00;100115.00;;;;5062347;28;19916;-68
2022/11/21 00:38:34;;;;;;;;;;;16.40;39.10;15.00;100113.00;;;;5061430;28;19920;-68
2022/11/21 00:41:00;;;;;;;;;;;16.40;39.10;15.00;100106.00;;;;5056775;28;19916;-68
2022/11/21 00:43:26;;;;;;;;;;;16.40;39.10;15.00;100097.00;;;;5058449;28;19913;-68
2022/11/21 00:45:51;;;;;;;;;;;16.40;39.10;15.00;100102.00;;;;5057060;28;19916;-68
2022/11/21 00:48:17;;;;;;;;;;;16.40;39.10;15.00;100109.00;;;;5060577;28;19908;-68
2022/11/21 00:50:43;;;;;;;;;;;16.40;39.10;15.00;100120.00;;;;5059893;28;19917;-68
2022/11/21 00:53:08;;;;;;;;;;;16.40;39.10;15.00;100116.00;;;;5064650;28;19934;-68
2022/11/21 00:55:36;;;;;;;;;;;16.40;39.10;15.00;100113.00;;;;5065210;28;19912;-68
2022/11/21 00:58:01;;;;;;;;;;;16.40;39.10;15.00;100128.00;;;;5066431;28;19916;-68
2022/11/21 01:00:27;;;;;;;;;;;16.40;39.10;15.00;100126.00;;;;5063890;28;19912;-68
2022/11/21 01:02:53;;;;;;;;;;;16.40;39.10;15.00;100126.00;;;;5063898;28;19916;-68
2022/11/21 01:05:18;;;;;;;;;;;16.40;39.10;15.00;100131.00;;;;5061158;28;19913;-68
2022/11/21 01:07:44;;;;;;;;;;;16.40;39.10;15.00;100137.00;;;;5063681;28;19942;-68
2022/11/21 01:10:10;;;;;;;;;;;16.40;39.10;15.00;100132.00;;;;5056722;28;20443;-68
2022/11/21 01:12:35;;;;;;;;;;;16.40;39.10;15.00;100135.00;;;;5062821;28;19916;-67
2022/11/21 01:15:01;;;;;;;;;;;16.40;39.10;15.00;100148.00;;;;5062703;28;19912;-68
2022/11/21 01:17:27;;;;;;;;;;;16.40;39.10;15.00;100138.00;;;;5067185;28;19923;-69
2022/11/21 01:19:52;;;;;;;;;;;16.40;39.10;15.00;100137.00;;;;5060040;28;19920;-68
2022/11/21 01:22:18;;;;;;;;;;;16.40;39.10;15.00;100126.00;;;;5063064;28;19931;-68
2022/11/21 01:24:44;;;;;;;;;;;16.40;39.10;15.00;100126.00;;;;5058949;28;19943;-68
2022/11/21 01:27:09;;;;;;;;;;;16.40;39.10;15.00;100118.00;;;;5061110;28;19920;-68
2022/11/21 01:29:35;;;;;;;;;;;16.40;39.10;15.00;100120.00;;;;5059589;28;19916;-68
2022/11/21 01:32:01;;;;;;;;;;;16.40;39.10;15.00;100120.00;;;;5045999;28;19912;-68
2022/11/21 01:34:26;;;;;;;;;;;16.40;39.10;15.00;100110.00;;;;5058675;28;20358;-68
2022/11/21 01:36:52;;;;;;;;;;;16.40;39.10;15.00;100118.00;;;;5061302;28;19920;-68
2022/11/21 01:39:18;;;;;;;;;;;16.40;39.10;15.00;100127.00;;;;5057013;28;19916;-68
2022/11/21 01:41:44;;;;;;;;;;;16.40;39.10;15.00;100132.00;;;;5063697;28;20459;-68
2022/11/21 01:44:23;;;;;;;;;;;16.30;39.10;15.00;100125.00;;;;5059803;28;20002;-68
2022/11/21 01:46:48;;;;;;;;;;;16.40;39.10;15.00;100122.00;;;;5060050;28;19916;-68
2022/11/21 01:49:32;;;;;;;;;;;16.30;39.10;15.00;100133.00;;;;5060282;28;19912;-68
2022/11/21 01:52:10;;;;;;;;;;;16.30;39.10;15.00;100139.00;;;;5042520;28;19963;-68
2022/11/21 01:54:46;;;;;;;;;;;16.30;39.10;15.00;100142.00;;;;5040957;28;19920;-68
2022/11/21 01:57:21;;;;;;;;;;;16.40;39.20;15.00;100132.00;;;;5049005;28;20046;-68
2022/11/21 01:59:50;;;;;;;;;;;16.30;39.10;15.00;100122.00;;;;5065001;28;19919;-68
2022/11/21 02:02:17;;;;;;;;;;;16.30;39.10;15.00;100131.00;;;;5036440;28;19916;-68
2022/11/21 02:04:42;;;;;;;;;;;16.30;39.20;15.00;100134.00;;;;5061666;28;19923;-68
2022/11/21 02:07:08;;;;;;;;;;;16.30;39.10;15.00;100129.00;;;;5043940;28;20358;-68
2022/11/21 02:09:35;;;;;;;;;;;16.40;39.20;15.00;100134.00;;;;5042684;28;19913;-68
2022/11/21 02:12:04;;;;;;;;;;;16.30;39.10;15.00;100141.00;;;;5048170;28;19916;-68
2022/11/21 02:14:30;;;;;;;;;;;16.30;39.20;15.00;100129.00;;;;5042908;28;20007;-68
2022/11/21 02:16:56;;;;;;;;;;;16.30;39.10;15.00;100133.00;;;;5040922;28;20004;-69
2022/11/21 02:19:31;;;;;;;;;;;16.40;39.20;15.00;100132.00;;;;5046312;28;20261;-68
2022/11/21 02:22:41;;;;;;;;;;;16.30;39.20;15.00;100131.00;;;;5041439;28;19912;-68
2022/11/21 02:25:16;;;;;;;;;;;16.30;39.20;15.00;100136.00;;;;5053387;28;20342;-68
2022/11/21 02:27:42;;;;;;;;;;;16.30;39.10;15.00;100147.00;;;;5046058;28;20366;-68
2022/11/21 02:30:08;;;;;;;;;;;16.30;39.10;15.00;100149.00;;;;5058559;28;19920;-68
2022/11/21 02:32:39;;;;;;;;;;;16.30;39.20;15.00;100149.00;;;;5028292;28;20440;-68
2022/11/21 02:35:05;;;;;;;;;;;16.30;39.20;15.00;100149.00;;;;5032223;28;19916;-68
2022/11/21 02:37:30;;;;;;;;;;;16.30;39.20;15.00;100151.00;;;;5040940;28;19918;-68
2022/11/21 02:39:57;;;;;;;;;;;16.30;39.20;15.00;100152.00;;;;5055746;28;20325;-68
2022/11/21 02:42:34;;;;;;;;;;;16.30;39.20;15.00;100147.00;;;;5039134;28;19917;-68
2022/11/21 02:45:06;;;;;;;;;;;16.30;39.20;15.00;100144.00;;;;5049536;28;19946;-68
2022/11/21 02:47:32;;;;;;;;;;;16.30;39.20;15.00;100143.00;;;;5039797;28;19919;-68
2022/11/21 02:50:23;;;;;;;;;;;16.30;39.20;15.00;100134.00;;;;5045954;28;20002;-68
2022/11/21 02:52:49;;;;;;;;;;;16.30;39.30;15.00;100138.00;;;;5061849;28;19913;-68
2022/11/21 02:55:14;;;;;;;;;;;16.30;39.20;15.00;100128.00;;;;5053664;28;19924;-68
2022/11/21 02:57:40;;;;;;;;;;;16.30;39.20;14.90;100130.00;;;;5055461;28;19913;-68
2022/11/21 03:00:07;;;;;;;;;;;16.30;39.20;15.00;100121.00;;;;5058741;28;19920;-68
2022/11/21 03:02:33;;;;;;;;;;;16.30;39.30;14.90;100122.00;;;;5060263;28;19919;-68
2022/11/21 03:04:58;;;;;;;;;;;16.30;39.20;14.90;100112.00;;;;5062778;28;19921;-68
2022/11/21 03:07:24;;;;;;;;;;;16.30;39.30;14.90;100121.00;;;;5037176;28;19919;-68
2022/11/21 03:09:50;;;;;;;;;;;16.30;39.30;15.00;100125.00;;;;5061401;28;19909;-68
2022/11/21 03:12:15;;;;;;;;;;;16.30;39.30;15.00;100133.00;;;;5056097;28;19912;-68
2022/11/21 03:14:41;;;;;;;;;;;16.30;39.30;15.00;100131.00;;;;5061679;28;19931;-68
2022/11/21 03:17:07;;;;;;;;;;;16.30;39.30;15.00;100131.00;;;;5051046;28;19920;-68
2022/11/21 03:19:32;;;;;;;;;;;16.30;39.30;14.90;100135.00;;;;5064503;28;19965;-68
2022/11/21 03:21:58;;;;;;;;;;;16.30;39.30;14.90;100135.00;;;;5068507;28;19921;-68
2022/11/21 03:24:24;;;;;;;;;;;16.30;39.30;15.00;100124.00;;;;5048008;28;20370;-67
2022/11/21 03:26:49;;;;;;;;;;;16.30;39.30;14.90;100134.00;;;;5064096;28;19921;-68
2022/11/21 03:29:15;;;;;;;;;;;16.30;39.40;14.90;100136.00;;;;5064290;28;20262;-68
2022/11/21 03:31:41;;;;;;;;;;;16.30;39.30;14.90;100140.00;;;;5064878;28;19924;-68
2022/11/21 03:34:06;;;;;;;;;;;16.30;39.30;14.90;100139.00;;;;5061094;28;19908;-68
2022/11/21 03:36:32;;;;;;;;;;;16.30;39.30;14.90;100132.00;;;;5058248;28;20342;-67
2022/11/21 03:38:58;;;;;;;;;;;16.30;39.30;14.90;100128.00;;;;5060804;28;19962;-67
2022/11/21 03:41:30;;;;;;;;;;;16.30;39.30;14.90;100132.00;;;;5055991;28;19913;-67
2022/11/21 03:43:55;;;;;;;;;;;16.30;39.30;14.90;100124.00;;;;5047721;28;19998;-67
2022/11/21 03:46:21;;;;;;;;;;;16.30;39.30;14.90;100126.00;;;;5059482;28;19981;-67
2022/11/21 03:48:46;;;;;;;;;;;16.30;39.30;14.90;100135.00;;;;5062021;28;19928;-67
2022/11/21 03:51:12;;;;;;;;;;;16.30;40.00;14.90;100123.00;;;;5067516;28;19912;-67
2022/11/21 03:53:38;;;;;;;;;;;16.30;39.30;14.90;100115.00;;;;5051308;28;20281;-68
2022/11/21 03:56:03;;;;;;;;;;;16.30;39.30;14.90;100115.00;;;;5062955;28;19924;-68
2022/11/21 03:58:30;;;;;;;;;;;16.30;39.30;15.00;100117.00;;;;5067498;28;19913;-67
2022/11/21 04:00:55;;;;;;;;;;;16.30;39.30;14.90;100130.00;;;;5065874;28;19970;-67
2022/11/21 04:03:21;;;;;;;;;;;16.30;39.30;14.90;100121.00;;;;5059625;28;19913;-67
2022/11/21 04:05:47;;;;;;;;;;;16.30;39.30;14.90;100129.00;;;;5058979;28;19970;-67
2022/11/21 04:08:12;;;;;;;;;;;16.30;39.30;14.90;100135.00;;;;5057541;28;19912;-67
2022/11/21 04:10:38;;;;;;;;;;;16.30;39.30;14.90;100127.00;;;;5059774;28;19924;-68
2022/11/21 04:13:04;;;;;;;;;;;16.30;39.40;14.90;100130.00;;;;5067108;28;19919;-67
2022/11/21 04:15:29;;;;;;;;;;;16.30;39.40;14.90;100127.00;;;;5064810;28;20251;-67
2022/11/21 04:17:55;;;;;;;;;;;16.30;39.40;14.90;100128.00;;;;5066306;28;19912;-67
2022/11/21 04:20:21;;;;;;;;;;;16.30;39.40;14.90;100139.00;;;;5064933;28;19927;-68
2022/11/21 04:22:46;;;;;;;;;;;16.30;39.40;14.90;100135.00;;;;5063648;28;19982;-67
2022/11/21 04:25:12;;;;;;;;;;;16.30;39.40;14.90;100134.00;;;;5046636;28;19912;-68
2022/11/21 04:27:38;;;;;;;;;;;16.30;39.40;14.90;100130.00;;;;5062160;28;20016;-67
2022/11/21 04:30:05;;;;;;;;;;;16.30;39.40;14.90;100124.00;;;;5063637;28;19991;-67
2022/11/21 04:32:30;;;;;;;;;;;16.30;39.40;14.90;100126.00;;;;5061375;28;19916;-67
2022/11/21 04:34:56;;;;;;;;;;;16.30;39.40;14.90;100123.00;;;;5065988;28;20262;-67
2022/11/21 04:37:22;;;;;;;;;;;16.30;39.40;14.90;100126.00;;;;5049917;28;20335;-67
2022/11/21 04:39:47;;;;;;;;;;;16.30;39.40;14.90;100125.00;;;;5059800;28;19924;-67
2022/11/21 04:42:13;;;;;;;;;;;16.30;39.40;14.90;100132.00;;;;5053859;28;19947;-68
2022/11/21 04:44:39;;;;;;;;;;;16.30;39.40;14.90;100117.00;;;;5064327;28;19920;-67
2022/11/21 04:47:04;;;;;;;;;;;16.30;39.40;14.90;100114.00;;;;5059531;28;19912;-67
2022/11/21 04:49:30;;;;;;;;;;;16.30;39.40;14.90;100110.00;;;;5062939;28;19936;-68
2022/11/21 04:51:56;;;;;;;;;;;16.30;39.40;14.90;100114.00;;;;5061083;28;19913;-67
2022/11/21 04:54:21;;;;;;;;;;;16.30;39.40;14.90;100108.00;;;;5061847;28;19909;-67
2022/11/21 04:56:47;;;;;;;;;;;16.30;39.40;14.90;100112.00;;;;5062703;28;20328;-67
2022/11/21 04:59:13;;;;;;;;;;;16.30;39.40;14.90;100106.00;;;;5063134;28;19913;-67
2022/11/21 05:01:38;;;;;;;;;;;16.30;39.40;14.90;100111.00;;;;5042105;28;20318;-67
2022/11/21 05:04:04;;;;;;;;;;;16.20;39.40;14.90;100122.00;;;;5062276;28;19920;-67
2022/11/21 05:06:30;;;;;;;;;;;16.20;39.40;14.90;100120.00;;;;5061779;28;19912;-67
2022/11/21 05:08:55;;;;;;;;;;;16.30;39.40;14.90;100120.00;;;;5063630;28;19916;-67
2022/11/21 05:14:05;;;;;;;;;;;16.30;39.50;14.90;100111.00;;;;5061658;28;19924;-67
2022/11/21 05:16:32;;;;;;;;;;;16.30;39.40;14.90;100110.00;;;;5064168;28;20259;-67
2022/11/21 05:18:57;;;;;;;;;;;16.30;39.40;14.90;100107.00;;;;5064192;28;19916;-67
2022/11/21 05:21:23;;;;;;;;;;;16.30;39.40;14.90;100112.00;;;;5060511;28;19913;-67
2022/11/21 05:23:49;;;;;;;;;;;16.30;39.50;14.90;100112.00;;;;5062234;28;19924;-67
2022/11/21 05:26:14;;;;;;;;;;;16.30;39.40;14.90;100121.00;;;;5061924;28;19943;-67
2022/11/21 05:28:40;;;;;;;;;;;16.30;39.40;14.90;100117.00;;;;5061528;28;19924;-67
2022/11/21 05:31:06;;;;;;;;;;;16.20;39.40;14.90;100110.00;;;;5067454;28;19916;-67
2022/11/21 05:33:31;;;;;;;;;;;16.30;39.50;14.90;100113.00;;;;5046936;28;19913;-67
2022/11/21 05:35:57;;;;;;;;;;;16.20;39.40;14.90;100111.00;;;;5049721;28;19962;-67
2022/11/21 05:38:23;;;;;;;;;;;16.30;39.50;14.90;100104.00;;;;5056808;28;20357;-67
2022/11/21 05:40:51;;;;;;;;;;;16.20;39.40;14.90;100110.00;;;;5059858;28;19923;-67
2022/11/21 05:46:01;;;;;;;;;;;16.30;39.50;14.90;100112.00;;;;5062830;28;20269;-67
2022/11/21 05:48:26;;;;;;;;;;;16.20;39.40;14.90;100116.00;;;;5062184;28;19912;-67
2022/11/21 05:50:52;;;;;;;;;;;16.20;39.40;14.90;100113.00;;;;5057879;28;20336;-67
2022/11/21 05:53:18;;;;;;;;;;;16.30;39.50;14.90;100115.00;;;;5063695;28;19912;-67
2022/11/21 05:55:44;;;;;;;;;;;16.20;39.40;14.90;100111.00;;;;5047290;28;19918;-67
2022/11/21 05:58:09;;;;;;;;;;;16.30;39.50;14.90;100112.00;;;;5048946;28;20010;-67
2022/11/21 06:00:35;;;;;;;;;;;16.30;39.50;14.90;100110.00;;;;5061609;28;19912;-67
2022/11/21 06:05:45;;;;;;;;;;;16.20;39.40;14.90;100111.00;;;;5063445;28;19919;-67
2022/11/21 06:08:11;;;;;;;;;;;16.30;39.40;14.90;100113.00;;;;5066429;28;19912;-67
2022/11/21 06:10:36;;;;;;;;;;;16.20;39.40;14.90;100113.00;;;;5062722;28;19974;-67
2022/11/21 06:13:02;;;;;;;;;;;16.20;40.10;14.90;100121.00;;;;5063487;28;20384;-68
2022/11/21 06:15:28;;;;;;;;;;;16.30;39.40;14.90;100122.00;;;;5051976;28;19922;-67
2022/11/21 06:17:53;;;;;;;;;;;16.30;39.40;14.90;100127.00;;;;5046503;28;19913;-67
2022/11/21 06:20:19;;;;;;;;;;;16.20;39.40;14.90;100121.00;;;;5043888;28;19916;-67
2022/11/21 06:22:45;;;;;;;;;;;16.20;39.40;14.90;100121.00;;;;5065750;28;19920;-67
2022/11/21 06:25:10;;;;;;;;;;;16.20;39.30;14.90;100117.00;;;;5063714;28;19916;-67
2022/11/21 06:27:36;;;;;;;;;;;16.20;39.40;14.90;100114.00;;;;5058307;28;19960;-67
2022/11/21 06:30:02;;;;;;;;;;;16.20;39.40;14.90;100110.00;;;;5063576;28;19991;-68
2022/11/21 06:32:28;;;;;;;;;;;16.20;39.30;14.90;100107.00;;;;5062716;28;20003;-67
2022/11/21 06:34:54;;;;;;;;;;;16.20;39.40;14.90;100098.00;;;;5065003;28;19912;-67
2022/11/21 06:37:19;;;;;;;;;;;16.20;39.30;14.90;100105.00;;;;5057650;28;19916;-67
2022/11/21 06:39:45;;;;;;;;;;;16.20;39.40;14.90;100088.00;;;;5059906;28;19983;-67
2022/11/21 06:42:11;;;;;;;;;;;16.20;39.40;14.90;100090.00;;;;5059027;28;20197;-67
2022/11/21 06:44:36;;;;;;;;;;;16.20;39.40;14.90;100085.00;;;;5058846;28;20352;-68
2022/11/21 06:47:02;;;;;;;;;;;16.20;39.40;14.90;100082.00;;;;5059423;28;20249;-67
2022/11/21 06:49:28;;;;;;;;;;;16.10;39.30;14.90;100069.00;;;;5063548;28;20338;-67
2022/11/21 06:51:53;;;;;;;;;;;16.20;39.40;14.90;100079.00;;;;5061001;28;19916;-68
2022/11/21 06:54:19;;;;;;;;;;;16.20;39.40;14.90;100081.00;;;;5062293;28;19923;-67
2022/11/21 06:56:45;;;;;;;;;;;16.20;39.40;14.90;100086.00;;;;5062763;28;19913;-67
2022/11/21 06:59:10;;;;;;;;;;;16.20;39.40;14.90;100096.00;;;;5061870;28;19912;-67
2022/11/21 07:01:36;;;;;;;;;;;16.20;39.40;14.90;100089.00;;;;5062734;28;19912;-67
2022/11/21 07:04:02;;;;;;;;;;;16.20;39.40;14.80;100084.00;;;;5067009;28;19970;-68
2022/11/21 07:06:27;;;;;;;;;;;16.20;39.40;14.90;100093.00;;;;5059428;28;20382;-67
2022/11/21 07:08:53;;;;;;;;;;;16.20;39.40;14.80;100093.00;;;;5065746;28;19909;-67
2022/11/21 07:11:19;;;;;;;;;;;16.20;39.40;14.80;100093.00;;;;5057921;28;19923;-68
2022/11/21 07:13:45;;;;;;;;;;;16.20;39.40;14.80;100098.00;;;;5063232;28;19912;-67
2022/11/21 07:16:13;;;;;;;;;;;16.20;39.40;14.80;100114.00;;;;5063659;28;20040;-67
2022/11/21 07:18:38;;;;;;;;;;;16.20;39.40;14.80;100119.00;;;;5065032;28;19923;-67
2022/11/21 07:21:04;;;;;;;;;;;16.20;39.40;14.80;100116.00;;;;5049463;28;19912;-67
2022/11/21 07:23:30;;;;;;;;;;;16.10;39.40;14.80;100125.00;;;;5067574;28;20427;-67
2022/11/21 07:26:02;;;;;;;;;;;16.20;39.40;14.80;100125.00;;;;5061552;28;19920;-67
2022/11/21 07:28:28;;;;;;;;;;;16.10;39.40;14.80;100120.00;;;;5062844;28;19963;-67
2022/11/21 07:30:58;;;;;;;;;;;16.20;39.40;14.80;100116.00;;;;5065581;28;19912;-67
2022/11/21 07:33:23;;;;;;;;;;;16.10;39.40;14.80;100119.00;;;;5047268;28;19913;-67
2022/11/21 07:35:49;;;;;;;;;;;16.20;39.40;14.80;100122.00;;;;5042564;28;20389;-67
2022/11/21 07:38:15;;;;;;;;;;;16.10;39.40;14.80;100118.00;;;;5042818;28;19916;-67
2022/11/21 07:40:40;;;;;;;;;;;16.10;39.40;14.80;100108.00;;;;5046202;28;20026;-67
2022/11/21 07:43:06;;;;;;;;;;;16.10;39.40;14.80;100112.00;;;;5062364;28;19928;-67
2022/11/21 07:45:32;;;;;;;;;;;16.10;39.40;14.80;100114.00;;;;5041921;28;19974;-67
2022/11/21 07:47:58;;;;;;;;;;;16.10;39.40;14.80;100103.00;;;;5043984;28;20398;-67
2022/11/21 07:50:24;;;;;;;;;;;16.20;39.40;14.80;100109.00;;;;5064733;28;19912;-67
2022/11/21 07:52:50;;;;;;;;;;;16.10;39.40;14.80;100101.00;;;;5045356;28;19912;-67
2022/11/21 07:55:16;;;;;;;;;;;16.10;39.40;14.80;100097.00;;;;5065500;28;19919;-67
2022/11/21 07:57:41;;;;;;;;;;;16.10;39.40;14.80;100097.00;;;;5065236;28;19912;-67
2022/11/21 08:00:08;;;;;;;;;;;16.10;39.40;14.80;100101.00;;;;5063947;28;20321;-67
2022/11/21 08:02:33;;;;;;;;;;;16.10;39.40;14.80;100099.00;;;;5062136;28;19912;-67
2022/11/21 08:04:59;;;;;;;;;;;16.10;39.40;14.80;100101.00;;;;5060972;28;19924;-67
2022/11/21 08:07:25;;;;;;;;;;;16.10;39.40;14.80;100096.00;;;;5062840;28;19912;-67
2022/11/21 08:09:50;;;;;;;;;;;16.10;39.40;14.80;100103.00;;;;5064056;28;20377;-67
2022/11/21 08:12:16;;;;;;;;;;;16.10;39.40;14.80;100102.00;;;;5061548;28;19928;-67
2022/11/21 08:14:42;;;;;;;;;;;16.10;39.40;14.80;100097.00;;;;5064970;28;19909;-67
2022/11/21 08:17:08;;;;;;;;;;;16.10;39.40;14.80;100086.00;;;;5058360;28;19912;-67
2022/11/21 08:19:33;;;;;;;;;;;16.10;39.40;14.80;100094.00;;;;5062259;28;19912;-67
2022/11/21 08:21:59;;;;;;;;;;;16.10;39.40;14.80;100092.00;;;;5062256;28;20270;-67
2022/11/21 08:24:25;;;;;;;;;;;16.10;39.40;14.80;100088.00;;;;5049728;28;19912;-67
2022/11/21 08:26:51;;;;;;;;;;;16.20;39.40;14.80;100094.00;;;;5060438;28;20433;-67
2022/11/21 08:29:16;;;;;;;;;;;16.10;39.40;14.80;100087.00;;;;5044121;28;19916;-67
2022/11/21 08:31:42;;;;;;;;;;;16.10;39.40;14.80;100070.00;;;;5058100;28;19990;-67
2022/11/21 08:34:08;;;;;;;;;;;16.10;39.40;14.80;100078.00;;;;5064905;28;19912;-67
2022/11/21 08:36:34;;;;;;;;;;;16.10;39.40;14.80;100077.00;;;;5060543;28;19923;-67
2022/11/21 08:38:59;;;;;;;;;;;16.20;39.40;14.80;100080.00;;;;5067632;28;19921;-67
2022/11/21 08:44:09;;;;;;;;;;;16.10;39.40;14.80;100078.00;;;;5063760;28;20329;-67
2022/11/21 08:46:36;;;;;;;;;;;16.10;39.40;14.80;100074.00;;;;5042960;28;19916;-67
2022/11/21 08:49:07;;;;;;;;;;;16.10;39.40;14.80;100082.00;;;;5063792;28;20030;-67
2022/11/21 08:51:33;;;;;;;;;;;16.20;39.40;14.80;100085.00;;;;5042751;28;19916;-67
2022/11/21 08:53:59;;;;;;;;;;;16.10;39.40;14.80;100090.00;;;;5060417;28;19924;-67
2022/11/21 08:56:25;;;;;;;;;;;16.10;39.40;14.80;100091.00;;;;5061588;28;20317;-67
2022/11/21 08:58:51;;;;;;;;;;;16.10;39.40;14.80;100092.00;;;;5060246;28;19969;-67
2022/11/21 09:01:16;;;;;;;;;;;16.10;39.40;14.80;100085.00;;;;5047950;28;20373;-67
2022/11/21 09:03:42;;;;;;;;;;;16.10;39.40;14.80;100086.00;;;;5059292;28;19924;-67
2022/11/21 09:06:08;;;;;;;;;;;16.10;39.40;14.80;100083.00;;;;5060877;28;20369;-67
2022/11/21 09:08:33;;;;;;;;;;;16.10;39.40;14.80;100077.00;;;;5057630;28;19913;-67
2022/11/21 09:11:06;;;;;;;;;;;16.10;39.40;14.80;100064.00;;;;5063204;28;19921;-67
2022/11/21 09:13:32;;;;;;;;;;;16.20;39.40;14.80;100061.00;;;;5043576;28;19916;-67
2022/11/21 09:18:43;;;;;;;;;;;16.20;39.40;14.80;100054.00;;;;5050999;28;19924;-67
2022/11/21 09:21:16;;;;;;;;;;;16.10;39.40;14.80;100057.00;;;;5047932;28;19916;-67
2022/11/21 09:23:41;;;;;;;;;;;16.10;39.40;14.80;100051.00;;;;5059137;28;20266;-67
2022/11/21 09:26:07;;;;;;;;;;;16.10;39.40;14.80;100057.00;;;;5064449;28;19920;-67
2022/11/21 09:28:34;;;;;;;;;;;16.10;39.40;14.80;100061.00;;;;5059027;28;19967;-67
2022/11/21 09:31:01;;;;;;;;;;;16.20;39.40;14.80;100062.00;;;;5064140;28;19981;-67
2022/11/21 09:33:27;;;;;;;;;;;16.10;39.40;14.80;100069.00;;;;5045059;28;20342;-67
2022/11/21 09:35:53;;;;;;;;;;;16.20;39.40;14.90;100075.00;;;;5045710;28;19919;-67
2022/11/21 09:38:18;;;;;;;;;;;16.20;39.40;14.90;100066.00;;;;5059755;28;19916;-67
2022/11/21 09:40:45;;;;;;;;;;;16.20;39.50;14.80;100048.00;;;;5043877;28;19916;-67
2022/11/21 09:43:14;;;;;;;;;;;16.20;39.40;14.80;100044.00;;;;5044077;28;20601;-67
2022/11/21 09:45:47;;;;;;;;;;;16.20;39.40;14.90;100048.00;;;;5060131;28;19920;-67
2022/11/21 09:48:21;;;;;;;;;;;16.20;39.40;14.90;100041.00;;;;5048111;28;19916;-67
2022/11/21 09:50:52;;;;;;;;;;;16.20;39.40;14.90;100037.00;;;;5060585;28;19923;-67
2022/11/21 09:53:22;;;;;;;;;;;16.20;39.40;14.90;100034.00;;;;5062420;28;19920;-67
2022/11/21 09:56:06;;;;;;;;;;;16.20;39.40;14.90;100030.00;;;;5049191;28;19912;-67
2022/11/21 09:58:42;;;;;;;;;;;16.20;39.40;14.90;100039.00;;;;5060312;28;19920;-67
2022/11/21 10:01:11;;;;;;;;;;;16.20;39.40;14.90;100041.00;;;;5038243;28;20487;-67
2022/11/21 10:03:45;;;;;;;;;;;16.20;39.40;14.90;100038.00;;;;5043627;28;19947;-67
2022/11/21 10:06:19;;;;;;;;;;;16.20;39.40;14.90;100040.00;;;;5041468;28;19970;-67
2022/11/21 10:08:45;;;;;;;;;;;16.20;39.40;14.90;100024.00;;;;5057655;28;20362;-67
2022/11/21 10:11:20;;;;;;;;;;;16.20;39.40;14.90;100014.00;;;;5060456;28;20001;-67
2022/11/21 10:14:01;;;;;;;;;;;16.20;39.40;14.90;100025.00;;;;5045043;28;19963;-67
2022/11/21 10:16:42;;;;;;;;;;;16.20;40.20;14.90;100020.00;;;;5043826;28;20003;-67
2022/11/21 10:19:18;;;;;;;;;;;16.20;39.40;14.90;100015.00;;;;5037450;28;19916;-67
2022/11/21 10:21:56;;;;;;;;;;;16.20;39.40;14.90;100009.00;;;;5062196;28;19923;-67
2022/11/21 10:24:41;;;;;;;;;;;16.20;39.40;14.90;100007.00;;;;5045243;28;19982;-67
2022/11/21 10:27:44;;;;;;;;;;;16.20;39.40;14.90;99996.00;;;;5058902;28;19950;-67
2022/11/21 10:30:17;;;;;;;;;;;16.20;39.40;14.90;100000.00;;;;5059368;28;19920;-68
2022/11/21 10:32:47;;;;;;;;;;;16.20;39.40;14.90;99994.00;;;;5046110;28;19920;-67
2022/11/21 10:35:40;;;;;;;;;;;16.30;39.50;14.90;99986.00;;;;5060129;28;19912;-67
2022/11/21 10:38:22;;;;;;;;;;;16.20;39.50;14.90;99976.00;;;;5039154;28;19916;-67
2022/11/21 10:41:00;;;;;;;;;;;16.30;39.50;14.90;99969.00;;;;5045083;28;19916;-67
2022/11/21 10:46:18;;;;;;;;;;;16.30;39.50;14.90;99965.00;;;;5055056;28;20358;-67
2022/11/21 10:49:07;;;;;;;;;;;16.30;39.50;14.90;99962.00;;;;5057560;28;19917;-67
2022/11/21 10:51:36;;;;;;;;;;;16.30;39.50;14.90;99953.00;;;;5057018;28;19919;-67
2022/11/21 10:54:31;;;;;;;;;;;16.30;39.50;15.00;99959.00;;;;5060291;28;19954;-67
2022/11/21 10:57:06;;;;;;;;;;;16.30;39.50;14.90;99952.00;;;;5059435;28;19947;-67
2022/11/21 10:59:31;;;;;;;;;;;16.30;39.50;14.90;99948.00;;;;5058509;28;20164;-67
2022/11/21 11:01:59;;;;;;;;;;;16.30;40.10;14.90;99938.00;;;;5042160;28;19912;-67
2022/11/21 11:04:29;;;;;;;;;;;16.30;39.50;15.00;99936.00;;;;5055618;28;19987;-67
2022/11/21 11:06:55;;;;;;;;;;;16.30;39.50;15.00;99931.00;;;;5059822;28;20416;-67
2022/11/21 11:09:22;;;;;;;;;;;16.30;39.50;15.00;99934.00;;;;5045160;28;19916;-67
2022/11/21 11:11:47;;;;;;;;;;;16.30;39.50;15.00;99928.00;;;;5046198;28;19948;-67
2022/11/21 11:14:15;;;;;;;;;;;16.30;39.50;15.00;99930.00;;;;5063232;28;19913;-67
2022/11/21 11:16:43;;;;;;;;;;;16.30;39.50;15.00;99920.00;;;;5059167;28;20387;-67
2022/11/21 11:19:18;;;;;;;;;;;16.30;39.50;15.00;99922.00;;;;5060264;28;20526;-67
2022/11/21 11:21:44;;;;;;;;;;;16.30;39.50;15.00;99926.00;;;;5045478;28;19917;-67
2022/11/21 11:24:09;;;;;;;;;;;16.30;39.50;15.00;99914.00;;;;5047403;28;20321;-67
2022/11/21 11:26:47;;;;;;;;;;;16.30;39.50;15.00;99911.00;;;;5061861;28;20313;-67
2022/11/21 11:29:16;;;;;;;;;;;16.30;39.50;15.00;99908.00;;;;5063059;28;19935;-67
2022/11/21 11:31:53;;;;;;;;;;;16.30;39.50;15.00;99903.00;;;;5058505;28;19967;-67
2022/11/21 11:34:19;;;;;;;;;;;16.30;39.50;15.00;99901.00;;;;5057764;28;19928;-67
2022/11/21 11:36:47;;;;;;;;;;;16.40;39.50;15.00;99893.00;;;;5062650;28;19912;-67
2022/11/21 11:39:17;;;;;;;;;;;16.30;39.50;15.00;99887.00;;;;5066422;28;20046;-67
2022/11/21 11:47:54;;;;;;;;;;;16.30;39.50;15.00;99883.00;;;;5063339;28;20343;-67
2022/11/21 11:50:38;;;;;;;;;;;16.30;39.50;15.00;99889.00;;;;5044978;28;19916;-68
2022/11/21 11:53:29;;;;;;;;;;;16.30;39.50;15.00;99881.00;;;;5049442;28;20081;-68
2022/11/21 11:55:58;;;;;;;;;;;16.30;39.50;15.00;99876.00;;;;5060406;28;19943;-67
2022/11/21 11:58:46;;;;;;;;;;;16.30;39.60;15.00;99888.00;;;;5044575;28;19920;-67
2022/11/21 12:01:15;;;;;;;;;;;16.40;39.60;15.00;99886.00;;;;5039879;28;19966;-67
2022/11/21 12:03:47;;;;;;;;;;;16.30;39.50;15.00;99878.00;;;;5049639;28;19920;-68
2022/11/21 12:06:26;;;;;;;;;;;16.40;39.60;15.00;99878.00;;;;5060726;28;20473;-68
2022/11/21 12:09:09;;;;;;;;;;;16.40;39.60;15.00;99885.00;;;;5049556;28;20287;-68
2022/11/21 12:17:44;;;;;;;;;;;16.40;39.60;15.00;99845.00;;;;5050036;28;19923;-67
2022/11/21 12:20:21;;;;;;;;;;;16.30;39.60;15.00;99839.00;;;;5050710;28;19916;-68
2022/11/21 12:22:48;;;;;;;;;;;16.30;39.60;15.00;99837.00;;;;5051622;28;19916;-68
2022/11/21 12:25:14;;;;;;;;;;;16.30;39.60;15.00;99835.00;;;;5047684;28;19917;-68